Time;durP1;ratioP1;P1;durP2;ratioP2;P2;SDS_P1;SDS_P2;PMS_P1;PMS_P2;Temp;Humidity;BMP_temperature;BMP_pressure;BME280_temperature;BME280_humidity;BME280_pressure;Samples;Min_cycle;Max_cycle;Signal;HPM_P1;HPM_P2
2022/03/25 00:02:09;;;;;;;6.10;2.80;;;;;;;15.19;25.21;99103.25;5140137;27;20611;-92
2022/03/25 00:04:35;;;;;;;9.03;3.53;;;;;;;15.17;25.80;99094.56;5157963;27;20166;-92
2022/03/25 00:07:03;;;;;;;6.70;2.50;;;;;;;15.22;25.62;99081.91;5139783;27;20174;-93
2022/03/25 00:09:32;;;;;;;7.90;2.60;;;;;;;15.28;25.11;99097.28;5139597;27;20178;-93
2022/03/25 00:11:57;;;;;;;3.87;2.37;;;;;;;15.09;25.28;99086.38;5158375;27;20281;-91
2022/03/25 00:14:46;;;;;;;6.90;2.53;;;;;;;15.13;25.16;99082.56;5158041;27;20420;-94
2022/03/25 00:17:12;;;;;;;7.27;2.60;;;;;;;15.08;25.57;99082.06;5144498;27;20213;-92
2022/03/25 00:19:43;;;;;;;5.27;2.60;;;;;;;15.03;25.49;99076.25;5157955;27;20604;-94
2022/03/25 00:22:11;;;;;;;6.90;3.37;;;;;;;14.96;25.38;99068.91;5157976;27;20178;-94
2022/03/25 00:24:39;;;;;;;7.13;2.53;;;;;;;15.09;25.42;99075.84;5139962;27;20653;-92
2022/03/25 00:27:12;;;;;;;8.30;3.33;;;;;;;15.04;25.20;99072.66;5158172;27;20180;-92
2022/03/25 00:29:38;;;;;;;4.77;2.43;;;;;;;15.17;25.28;99073.44;5139583;27;20184;-91
2022/03/25 03:06:44;;;;;;;6.73;3.03;;;;;;;11.86;31.48;99245.00;5154805;27;20271;-90
2022/03/25 03:09:10;;;;;;;6.07;3.83;;;;;;;11.94;31.42;99241.94;5154641;27;20190;-89
2022/03/25 03:11:36;;;;;;;9.53;3.70;;;;;;;11.94;31.39;99234.06;5154565;27;20186;-89
2022/03/25 03:14:02;;;;;;;10.37;3.67;;;;;;;11.95;30.85;99233.97;5154579;27;20174;-89
2022/03/25 03:16:28;;;;;;;7.93;4.17;;;;;;;12.12;30.63;99233.88;5154562;27;20171;-89
2022/03/25 03:18:54;;;;;;;7.80;4.17;;;;;;;12.11;30.67;99228.69;5136262;27;20234;-90
2022/03/25 03:21:23;;;;;;;15.60;4.90;;;;;;;12.22;30.48;99232.41;5154522;27;20548;-90
2022/03/25 03:23:51;;;;;;;11.40;3.83;;;;;;;12.24;30.52;99242.81;5154482;27;20257;-90
2022/03/25 03:26:20;;;;;;;11.17;4.07;;;;;;;12.26;30.19;99240.97;5154471;27;20170;-90
2022/03/25 03:28:46;;;;;;;6.27;3.17;;;;;;;12.33;30.03;99247.56;5157832;27;20247;-90
2022/03/25 03:31:11;;;;;;;7.57;3.07;;;;;;;12.39;29.98;99247.22;5158442;27;20202;-90
2022/03/25 03:33:37;;;;;;;9.67;4.27;;;;;;;12.44;30.13;99246.94;5158437;27;20301;-90
2022/03/25 03:36:03;;;;;;;7.23;3.77;;;;;;;12.47;29.88;99250.25;5158414;27;20181;-90
2022/03/25 03:38:29;;;;;;;6.20;3.30;;;;;;;12.57;29.78;99246.13;5158704;27;20612;-90
2022/03/25 03:40:54;;;;;;;8.20;4.17;;;;;;;12.59;29.69;99254.78;5140038;27;20181;-90
2022/03/25 03:43:20;;;;;;;9.77;4.50;;;;;;;12.48;29.70;99254.56;5158309;27;20503;-90
2022/03/25 03:45:45;;;;;;;9.07;4.33;;;;;;;12.33;30.11;99256.31;5139997;27;20580;-90
2022/03/25 03:48:11;;;;;;;8.27;3.50;;;;;;;12.12;31.00;99256.69;5158458;27;20185;-90
2022/03/25 03:50:38;;;;;;;10.87;3.67;;;;;;;11.88;31.01;99258.03;5158044;27;20225;-90
2022/03/25 03:53:04;;;;;;;8.53;3.80;;;;;;;11.85;30.56;99256.44;5158413;27;20197;-90
2022/03/25 03:55:30;;;;;;;7.77;3.57;;;;;;;11.87;30.67;99256.38;5158044;27;20619;-90
2022/03/25 03:57:55;;;;;;;7.53;4.13;;;;;;;11.76;30.67;99264.00;5158262;27;20263;-89
2022/03/25 04:00:21;;;;;;;8.50;3.73;;;;;;;11.64;30.99;99265.47;5157998;27;20608;-90
2022/03/25 04:02:47;;;;;;;11.27;4.77;;;;;;;11.71;31.33;99259.81;5158178;27;20169;-90
2022/03/25 04:05:13;;;;;;;9.90;3.90;;;;;;;11.45;32.15;99265.63;5157848;27;20615;-89
2022/03/25 04:07:46;;;;;;;8.30;4.20;;;;;;;11.38;31.93;99264.25;5157718;27;20269;-90
2022/03/25 04:10:13;;;;;;;10.67;4.33;;;;;;;11.49;31.73;99261.91;5158036;27;20162;-90
2022/03/25 04:12:39;;;;;;;9.83;4.20;;;;;;;11.52;31.47;99261.75;5157750;27;20166;-90
2022/03/25 04:15:09;;;;;;;10.77;4.53;;;;;;;11.42;31.98;99260.56;5157690;27;20166;-90
2022/03/25 04:17:38;;;;;;;11.53;4.93;;;;;;;11.52;31.45;99258.28;5157929;27;20158;-89
2022/03/25 04:20:04;;;;;;;11.87;5.63;;;;;;;11.28;32.38;99249.09;5157826;27;20170;-90
2022/03/25 04:22:30;;;;;;;10.47;4.80;;;;;;;11.15;32.28;99246.28;5157782;27;20173;-89
2022/03/25 04:24:55;;;;;;;12.63;5.93;;;;;;;11.12;32.20;99251.69;5157503;27;20192;-89
2022/03/25 04:27:21;;;;;;;13.57;6.37;;;;;;;11.03;32.80;99257.44;5157437;27;20178;-90
2022/03/25 04:29:47;;;;;;;11.83;5.17;;;;;;;11.02;32.38;99260.97;5157391;27;20513;-90
2022/03/25 04:32:12;;;;;;;9.73;4.87;;;;;;;11.03;32.53;99265.31;5157286;27;20265;-90
2022/03/25 04:34:38;;;;;;;17.23;5.50;;;;;;;10.80;33.66;99268.25;5157340;27;20241;-89
2022/03/25 04:37:03;;;;;;;11.17;5.30;;;;;;;10.63;33.55;99278.75;5139027;27;20197;-90
2022/03/25 04:39:29;;;;;;;11.83;4.00;;;;;;;10.83;33.31;99302.19;5156134;27;20185;-90
2022/03/25 04:41:54;;;;;;;11.40;5.43;;;;;;;10.96;32.31;99313.72;5157178;27;20167;-88
2022/03/25 04:44:20;;;;;;;10.73;4.90;;;;;;;10.91;33.11;99313.97;5157071;27;20193;-90
2022/03/25 04:46:45;;;;;;;9.20;3.50;;;;;;;10.71;32.90;99293.19;5157330;27;20674;-90
2022/03/25 04:49:11;;;;;;;15.53;6.53;;;;;;;10.41;34.32;99298.16;5157058;27;20181;-89
2022/03/25 04:51:36;;;;;;;10.03;4.67;;;;;;;10.50;33.31;99296.88;5156906;27;20201;-89
2022/03/25 04:54:03;;;;;;;12.60;6.20;;;;;;;10.62;33.48;99298.00;5157488;27;20174;-89
2022/03/25 04:56:29;;;;;;;12.47;5.67;;;;;;;10.75;33.54;99299.09;5156881;27;20162;-89
2022/03/25 04:58:55;;;;;;;10.60;5.67;;;;;;;10.80;33.20;99297.06;5138852;27;20667;-90
2022/03/25 05:01:20;;;;;;;12.90;4.77;;;;;;;10.80;33.17;99303.19;5156796;27;20167;-89
2022/03/25 05:03:46;;;;;;;10.73;4.67;;;;;;;10.86;33.40;99302.03;5156743;27;20178;-89
2022/03/25 05:06:11;;;;;;;12.90;5.87;;;;;;;10.89;34.07;99312.38;5156525;27;20234;-90
2022/03/25 05:08:37;;;;;;;9.43;4.60;;;;;;;10.98;34.18;99311.88;5157007;27;20159;-89
2022/03/25 05:11:03;;;;;;;16.97;6.80;;;;;;;11.12;34.06;99317.28;5156568;27;20190;-89
2022/03/25 05:13:28;;;;;;;20.90;9.37;;;;;;;11.27;33.73;99320.88;5156573;27;20189;-89
2022/03/25 05:15:54;;;;;;;24.50;7.80;;;;;;;11.36;33.24;99321.25;5156578;27;20179;-89
2022/03/25 05:18:19;;;;;;;14.97;6.57;;;;;;;11.55;32.93;99319.34;5156414;27;20257;-89
2022/03/25 05:20:45;;;;;;;16.80;5.43;;;;;;;11.48;33.16;99317.09;5156440;27;20162;-90
2022/03/25 05:23:10;;;;;;;8.53;4.57;;;;;;;11.67;33.05;99312.56;5156321;27;20196;-89
2022/03/25 05:25:36;;;;;;;11.20;5.03;;;;;;;11.83;33.05;99312.63;5156310;27;20189;-89
2022/03/25 05:28:02;;;;;;;11.37;5.60;;;;;;;12.22;33.54;99305.13;5156783;27;20637;-89
2022/03/25 05:30:31;;;;;;;11.07;5.60;;;;;;;12.62;32.69;99311.59;5156111;27;20175;-90
2022/03/25 05:32:58;;;;;;;10.30;5.60;;;;;;;13.18;33.14;99318.81;5156677;27;20166;-89
2022/03/25 05:35:25;;;;;;;7.43;4.73;;;;;;;13.70;32.71;99312.06;5138128;27;20533;-90
2022/03/25 05:37:51;;;;;;;13.73;5.23;;;;;;;14.12;31.44;99304.03;5137795;27;20229;-90
2022/03/25 05:40:19;;;;;;;11.93;4.77;;;;;;;14.47;29.98;99308.84;5155991;27;20263;-90
2022/03/25 05:42:46;;;;;;;18.87;6.07;;;;;;;15.07;29.09;99299.47;5155966;27;20192;-90
2022/03/25 05:45:12;;;;;;;10.67;5.03;;;;;;;15.55;28.96;99303.19;5155899;27;20181;-89
2022/03/25 05:47:39;;;;;;;8.97;4.97;;;;;;;16.07;29.24;99302.97;5155872;27;20612;-89
2022/03/25 05:50:06;;;;;;;10.37;4.20;;;;;;;16.47;28.20;99292.97;5155421;27;20178;-90
2022/03/25 05:52:31;;;;;;;8.20;4.60;;;;;;;17.08;27.01;99294.53;5155647;27;20195;-90
2022/03/25 05:54:57;;;;;;;14.07;4.57;;;;;;;17.60;25.15;99289.56;5156263;27;20326;-90
2022/03/25 05:57:23;;;;;;;15.80;5.40;;;;;;;18.21;26.17;99287.28;5155650;27;20636;-90
2022/03/25 05:59:49;;;;;;;16.67;7.20;;;;;;;18.34;26.60;99285.31;5155608;27;20169;-90
2022/03/25 06:02:14;;;;;;;14.73;7.57;;;;;;;18.26;25.93;99283.28;5155818;27;20241;-90
2022/03/25 06:04:40;;;;;;;26.70;7.97;;;;;;;18.34;26.13;99290.63;5155802;27;20181;-90
2022/03/25 06:07:06;;;;;;;14.53;7.20;;;;;;;18.23;25.69;99280.91;5155983;27;20193;-90
2022/03/25 06:09:32;;;;;;;10.93;5.33;;;;;;;18.20;24.72;99294.41;5155981;27;20276;-90
2022/03/25 06:11:58;;;;;;;12.77;5.03;;;;;;;17.75;22.93;99298.94;5155329;27;20194;-88
2022/03/25 06:14:25;;;;;;;13.00;4.40;;;;;;;17.60;24.18;99304.59;5155622;27;20178;-90
2022/03/25 06:16:51;;;;;;;8.40;4.40;;;;;;;18.16;24.22;99308.88;5155290;27;20216;-90
2022/03/25 06:19:17;;;;;;;7.93;3.93;;;;;;;18.29;22.29;99303.44;5155570;27;20197;-92
2022/03/25 06:21:43;;;;;;;7.73;4.20;;;;;;;18.72;22.41;99306.91;5155186;27;20180;-90
2022/03/25 06:24:08;;;;;;;13.33;3.77;;;;;;;19.69;21.99;99298.59;5155147;27;20178;-89
2022/03/25 06:26:34;;;;;;;7.13;3.40;;;;;;;20.26;21.00;99291.78;5155436;27;20205;-90
2022/03/25 06:29:00;;;;;;;11.73;4.40;;;;;;;21.04;20.86;99289.81;5155606;27;20185;-90
2022/03/25 06:31:25;;;;;;;7.83;3.50;;;;;;;21.66;19.17;99301.75;5154977;27;20197;-89
2022/03/25 06:33:51;;;;;;;11.30;4.27;;;;;;;21.78;19.79;99300.56;5155346;27;20199;-91
2022/03/25 06:36:16;;;;;;;9.77;3.73;;;;;;;21.80;19.76;99304.75;5155305;27;20211;-88
2022/03/25 06:38:43;;;;;;;11.60;4.63;;;;;;;22.66;19.39;99291.94;5154981;27;20664;-87
2022/03/25 06:41:09;;;;;;;11.73;4.10;;;;;;;22.75;18.31;99291.84;5136724;27;20174;-87
2022/03/25 06:43:36;;;;;;;10.37;3.80;;;;;;;23.05;18.03;99303.97;5154916;27;20166;-88
2022/03/25 06:46:03;;;;;;;7.50;3.40;;;;;;;23.76;19.70;99297.44;5155455;27;20258;-88
2022/03/25 06:48:30;;;;;;;7.60;3.53;;;;;;;23.98;16.93;99297.88;5155172;27;20190;-90
2022/03/25 06:50:56;;;;;;;9.50;4.03;;;;;;;23.25;17.58;99300.09;5154970;27;20186;-88
2022/03/25 06:53:21;;;;;;;9.40;3.83;;;;;;;22.91;17.61;99296.50;5155104;27;20170;-87
2022/03/25 06:55:47;;;;;;;8.50;3.70;;;;;;;22.58;18.14;99306.03;5155115;27;20174;-87
2022/03/25 06:58:14;;;;;;;8.17;3.80;;;;;;;22.50;18.83;99296.13;5154745;27;20174;-88
2022/03/25 07:00:40;;;;;;;11.07;4.97;;;;;;;22.18;18.53;99306.44;5154728;27;20249;-88
2022/03/25 07:03:06;;;;;;;10.73;4.67;;;;;;;21.30;19.44;99306.91;5156806;27;20178;-89
2022/03/25 07:05:31;;;;;;;10.33;4.97;;;;;;;21.68;20.04;99308.63;5140803;27;20197;-88
2022/03/25 07:07:58;;;;;;;15.13;4.40;;;;;;;22.16;20.11;99311.09;5140705;27;20213;-89
2022/03/25 07:10:26;;;;;;;12.50;3.90;;;;;;;22.75;19.33;99299.88;5159124;27;20174;-88
2022/03/25 07:12:53;;;;;;;10.00;3.67;;;;;;;22.79;18.86;99303.94;5140641;27;20214;-88
2022/03/25 07:15:20;;;;;;;7.13;3.77;;;;;;;22.51;19.40;99305.78;5158868;27;20162;-88
2022/03/25 07:17:45;;;;;;;6.73;3.00;;;;;;;22.48;20.16;99306.09;5159329;27;20174;-88
2022/03/25 07:20:13;;;;;;;10.17;4.43;;;;;;;22.73;19.04;99306.38;5158758;27;20642;-89
2022/03/25 07:22:40;;;;;;;10.60;4.50;;;;;;;22.64;19.49;99311.63;5158744;27;20162;-89
2022/03/25 07:25:06;;;;;;;9.93;4.60;;;;;;;22.17;18.50;99312.75;5158648;27;20178;-88
2022/03/25 07:27:32;;;;;;;8.60;3.23;;;;;;;22.16;19.52;99316.44;5158935;27;20170;-89
2022/03/25 07:29:57;;;;;;;10.63;3.90;;;;;;;22.43;18.90;99311.03;5158586;27;20535;-89
2022/03/25 07:32:23;;;;;;;8.27;3.90;;;;;;;22.38;18.94;99313.34;5158709;27;20635;-89
2022/03/25 07:34:48;;;;;;;8.63;4.07;;;;;;;22.29;19.01;99306.25;5140208;27;20174;-89
2022/03/25 07:37:14;;;;;;;7.60;4.00;;;;;;;22.11;18.94;99309.88;5158456;27;20198;-88
2022/03/25 07:39:39;;;;;;;7.63;3.47;;;;;;;21.84;20.12;99310.66;5158433;27;20631;-88
2022/03/25 07:42:05;;;;;;;11.17;4.40;;;;;;;21.50;19.04;99309.53;5158608;27;20629;-89
2022/03/25 07:44:31;;;;;;;8.63;3.73;;;;;;;21.68;21.30;99311.28;5140053;27;20608;-88
2022/03/25 07:46:56;;;;;;;7.77;3.60;;;;;;;21.68;17.85;99311.28;5158508;27;20166;-87
2022/03/25 07:49:22;;;;;;;9.73;4.30;;;;;;;21.24;19.33;99310.16;5158160;27;20166;-89
2022/03/25 07:51:47;;;;;;;6.70;3.30;;;;;;;21.16;19.44;99311.84;5158055;27;20290;-87
2022/03/25 07:54:13;;;;;;;11.23;3.93;;;;;;;20.62;19.77;99304.44;5139804;27;20619;-88
2022/03/25 07:56:39;;;;;;;7.27;3.87;;;;;;;20.42;21.31;99300.91;5158028;27;20159;-87
2022/03/25 07:59:04;;;;;;;8.07;3.57;;;;;;;20.47;20.06;99300.47;5157991;27;20170;-89
2022/03/25 08:01:30;;;;;;;17.07;3.87;;;;;;;20.70;20.80;99308.06;5139671;27;20170;-89
2022/03/25 08:03:56;;;;;;;7.43;3.57;;;;;;;20.82;20.08;99295.47;5139642;27;20174;-89
2022/03/25 08:06:22;;;;;;;13.70;4.43;;;;;;;20.61;20.42;99294.75;5157813;27;20247;-89
2022/03/25 08:08:50;;;;;;;9.33;3.90;;;;;;;21.01;19.97;99294.59;5158097;27;20166;-90
2022/03/25 08:11:23;;;;;;;9.27;4.40;;;;;;;20.98;20.60;99290.41;5158035;27;20242;-89
2022/03/25 08:13:48;;;;;;;10.10;3.97;;;;;;;20.95;19.49;99295.16;5153972;27;20163;-89
2022/03/25 08:16:16;;;;;;;6.70;3.50;;;;;;;19.97;19.59;99295.19;5136054;27;20194;-89
2022/03/25 08:18:43;;;;;;;8.43;4.10;;;;;;;19.89;21.57;99297.66;5137074;27;20656;-88
2022/03/25 08:21:09;;;;;;;8.63;4.17;;;;;;;20.43;21.70;99297.28;5136805;27;20203;-89
2022/03/25 08:29:22;;;;;;;6.80;3.73;;;;;;;20.37;21.54;99286.31;5079776;28;20225;-89
2022/03/25 08:31:48;;;;;;;11.03;4.67;;;;;;;20.31;20.39;99279.72;5118740;27;20649;-86
2022/03/25 08:34:15;;;;;;;7.27;3.43;;;;;;;20.61;21.40;99278.78;5136695;27;20590;-86
2022/03/25 08:36:44;;;;;;;9.43;4.27;;;;;;;20.30;20.16;99272.75;5136854;27;20179;-89
2022/03/25 08:39:10;;;;;;;13.57;4.40;;;;;;;19.83;20.90;99276.09;5136521;27;20195;-89
2022/03/25 08:41:36;;;;;;;9.83;4.13;;;;;;;19.73;20.99;99273.44;5136281;27;20566;-88
2022/03/25 08:44:02;;;;;;;8.43;4.03;;;;;;;19.70;21.00;99272.84;5136289;27;20539;-88
2022/03/25 08:46:27;;;;;;;11.93;4.13;;;;;;;19.68;21.55;99270.28;5118122;27;20261;-88
2022/03/25 08:48:53;;;;;;;7.80;3.60;;;;;;;20.07;21.48;99264.09;5136355;27;20175;-88
2022/03/25 08:51:18;;;;;;;10.80;4.63;;;;;;;20.33;22.07;99260.97;5118334;27;20635;-89
2022/03/25 08:53:45;;;;;;;10.33;4.43;;;;;;;20.71;22.03;99253.81;5117974;27;20179;-89
2022/03/25 08:56:11;;;;;;;10.27;3.67;;;;;;;20.83;21.30;99251.84;5136038;27;20175;-88
2022/03/25 08:58:40;;;;;;;7.47;4.03;;;;;;;21.09;21.08;99257.44;5136181;27;20539;-90
2022/03/25 09:01:06;;;;;;;10.67;3.77;;;;;;;21.13;20.48;99257.00;5136047;27;20199;-89
2022/03/25 09:03:32;;;;;;;12.10;4.13;;;;;;;20.96;21.39;99255.06;5135906;27;20727;-88
2022/03/25 09:05:57;;;;;;;8.13;4.10;;;;;;;21.19;20.40;99251.09;5117702;27;20262;-89
2022/03/25 09:08:23;;;;;;;10.53;4.60;;;;;;;21.50;21.08;99251.69;5135877;27;20238;-90
2022/03/25 09:10:49;;;;;;;12.97;4.70;;;;;;;21.52;20.61;99244.38;5134393;27;20282;-89
2022/03/25 09:13:44;;;;;;;;;;;;;;;;;;;;;
2022/03/25 09:16:48;;;;;;;;;;;;;;;;;;;;;
2022/03/25 09:22:33;;;;;;;9.97;4.50;;;;;;;22.12;20.81;99232.28;5135861;27;20170;-90
2022/03/25 09:25:04;;;;;;;10.90;4.50;;;;;;;21.89;20.44;99231.03;5116885;28;20563;-90
2022/03/25 09:27:59;;;;;;;15.00;5.10;;;;;;;21.89;21.29;99226.53;5136311;27;20238;-91
2022/03/25 09:30:55;;;;;;;;;;;;;;;;;;;;;
2022/03/25 09:40:47;;;;;;;;;;;;;;;;;;;;;
2022/03/25 09:43:18;;;;;;;;;;;;;;;;;;;;;
2022/03/25 09:46:04;;;;;;;8.27;3.43;;;;;;;23.06;19.68;99223.59;5032347;28;20188;-90
2022/03/25 09:48:35;;;;;;;7.90;4.00;;;;;;;23.36;19.04;99206.22;5015714;28;20212;-90
2022/03/25 09:51:18;;;;;;;6.00;3.27;;;;;;;23.50;18.98;99212.84;5015747;28;20680;-89
2022/03/25 09:57:02;;;;;;;6.27;2.97;;;;;;;23.43;18.26;99209.97;5005802;27;20182;-90
2022/03/25 09:59:59;;;;;;;;;;;;;;;;;;;;;
2022/03/25 10:03:34;;;;;;;;;;;;;;;;;;;;;
2022/03/25 10:06:01;;;;;;;10.30;4.50;;;;;;;23.03;19.16;99199.03;5049338;28;20201;-88
2022/03/25 10:08:31;;;;;;;9.57;3.73;;;;;;;22.85;19.39;99200.91;5116512;27;20175;-88
2022/03/25 10:11:19;;;;;;;8.47;3.27;;;;;;;22.80;19.99;99196.00;5134554;27;20183;-90
2022/03/25 10:21:32;;;;;;;6.93;3.50;;;;;;;23.64;19.55;99177.44;5029326;27;20187;-89
2022/03/25 10:24:38;;;;;;;8.97;3.93;;;;;;;23.37;19.71;99181.19;5134287;27;20177;-89
2022/03/25 10:27:05;;;;;;;9.43;4.10;;;;;;;23.42;19.95;99176.19;5102258;27;20632;-89
2022/03/25 10:32:39;;;;;;;;;;;;;;;;;;;;;
2022/03/25 10:35:14;;;;;;;9.60;4.07;;;;;;;23.83;19.04;99167.28;5133279;27;20623;-88
2022/03/25 10:38:09;;;;;;;9.37;3.90;;;;;;;23.93;18.89;99152.91;5132414;27;20265;-88
2022/03/25 10:41:11;;;;;;;5.93;3.00;;;;;;;24.12;20.25;99149.97;5134175;27;20660;-91
2022/03/25 11:04:26;;;;;;;6.93;3.60;;;;;;;24.76;18.45;99122.31;4972455;28;20267;-89
2022/03/25 11:07:01;;;;;;;8.77;3.53;;;;;;;24.50;18.68;99133.25;4972427;28;20641;-90
2022/03/25 11:10:17;;;;;;;7.97;3.80;;;;;;;24.36;19.23;99125.88;5096068;28;20200;-89
2022/03/25 11:13:09;;;;;;;6.73;3.03;;;;;;;24.17;18.81;99129.72;5132762;28;20627;-89
2022/03/25 11:16:29;;;;;;;7.20;3.73;;;;;;;24.42;18.52;99127.88;5130229;28;20190;-90
2022/03/25 11:18:55;;;;;;;7.90;4.20;;;;;;;24.61;18.99;99118.63;5115821;28;20265;-88
2022/03/25 11:21:23;;;;;;;8.33;4.00;;;;;;;24.24;18.13;99116.50;5133679;28;20170;-88
2022/03/25 11:24:54;;;;;;;8.80;3.47;;;;;;;24.09;18.14;99112.78;5134142;28;20194;-90
2022/03/25 11:27:58;;;;;;;7.53;3.93;;;;;;;23.79;19.21;99101.69;5049692;28;20193;-90
2022/03/25 11:30:37;;;;;;;8.47;4.10;;;;;;;23.88;19.16;99099.84;5053427;28;20186;-88
2022/03/25 11:33:55;;;;;;;7.47;4.17;;;;;;;24.18;18.21;99088.53;5133457;28;20159;-90
2022/03/25 11:36:25;;;;;;;9.30;3.60;;;;;;;24.17;17.88;99097.56;5115957;28;20178;-91
2022/03/25 11:39:16;;;;;;;8.00;3.80;;;;;;;24.35;17.85;99092.88;5132182;28;20183;-90
2022/03/25 11:42:07;;;;;;;6.53;3.30;;;;;;;24.46;19.31;99083.66;5132749;28;20168;-90
2022/03/25 11:44:37;;;;;;;5.60;3.50;;;;;;;24.21;19.15;99080.16;5133633;28;20171;-88
2022/03/25 11:47:11;;;;;;;11.03;4.23;;;;;;;24.66;18.63;99081.47;5133861;28;20191;-88
2022/03/25 11:53:11;;;;;;;7.50;3.80;;;;;;;24.75;17.03;99067.84;5113181;27;20286;-90
2022/03/25 11:56:05;;;;;;;8.80;3.60;;;;;;;24.66;17.44;99060.00;5137323;27;20206;-89
2022/03/25 11:59:24;;;;;;;;;;;;;;;;;;;;;
2022/03/25 12:01:50;;;;;;;9.63;3.80;;;;;;;25.10;17.28;99046.97;5138052;27;20147;-89
2022/03/25 12:09:13;;;;;;;;;;;;;;;;;;;;;
2022/03/25 12:14:56;;;;;;;6.40;3.37;;;;;;;24.50;17.70;99042.13;5034673;28;20193;-89
2022/03/25 12:17:26;;;;;;;16.37;5.37;;;;;;;24.83;18.03;99043.72;5109054;28;20199;-88
2022/03/25 12:20:25;;;;;;;10.40;5.70;;;;;;;25.15;18.93;99028.50;5117053;28;20160;-88
2022/03/25 12:23:39;;;;;;;11.97;4.43;;;;;;;25.22;17.11;99032.97;5116130;27;20172;-90
2022/03/25 12:26:32;;;;;;;10.23;4.30;;;;;;;24.90;18.64;99050.06;5116621;28;20632;-91
2022/03/25 12:29:05;;;;;;;13.07;4.50;;;;;;;24.52;16.40;99037.41;5116840;28;20243;-90
2022/03/25 12:31:31;;;;;;;11.60;5.03;;;;;;;24.14;16.31;99040.81;5116574;28;20188;-89
2022/03/25 12:34:18;;;;;;;8.97;4.07;;;;;;;23.97;16.67;99037.28;5116218;28;20532;-90
2022/03/25 12:37:26;;;;;;;;;;;;;;;;;;;;;
2022/03/25 12:40:53;;;;;;;6.60;2.93;;;;;;;24.39;15.74;99037.97;5053737;28;20192;-90
2022/03/25 12:43:03;;;;;;;4.37;1.87;;;;;;;24.24;13.73;99033.47;5046704;28;20194;-93
2022/03/25 12:45:36;;;;;;;7.13;1.90;;;;;;;24.40;15.01;99036.09;5054426;28;20181;-90
2022/03/25 12:48:12;;;;;;;8.90;2.40;;;;;;;24.52;14.48;99034.75;5053652;28;20193;-88
2022/03/25 12:50:42;;;;;;;3.60;1.53;;;;;;;24.14;13.92;99047.00;5069494;28;20547;-89
2022/03/25 12:53:08;;;;;;;4.80;1.53;;;;;;;23.65;14.00;99045.28;5116123;28;20172;-87
2022/03/25 12:55:37;;;;;;;3.33;1.37;;;;;;;23.47;14.09;99032.06;5115846;28;20246;-90
2022/03/25 12:58:11;;;;;;;4.83;1.63;;;;;;;23.15;12.61;99039.97;5115723;28;20167;-89
2022/03/25 13:00:42;;;;;;;4.63;2.43;;;;;;;23.28;13.50;99043.00;5114760;28;20648;-87
2022/03/25 13:03:10;;;;;;;3.83;1.50;;;;;;;23.64;14.09;99044.44;5115601;28;20160;-87
2022/03/25 13:05:36;;;;;;;3.87;1.57;;;;;;;23.36;13.66;99032.34;5115848;28;20648;-88
2022/03/25 13:08:03;;;;;;;2.90;1.43;;;;;;;23.90;13.17;99044.31;5120671;27;20228;-88
2022/03/25 13:10:33;;;;;;;5.60;2.07;;;;;;;24.01;13.28;99035.94;5095049;28;20192;-89
2022/03/25 13:13:14;;;;;;;6.23;1.57;;;;;;;23.60;13.38;99032.41;5095519;28;20176;-90
2022/03/25 13:15:42;;;;;;;8.77;2.80;;;;;;;23.55;13.44;99034.75;5095223;28;20163;-89
2022/03/25 13:18:13;;;;;;;3.53;1.23;;;;;;;23.34;12.64;99034.34;5094804;28;20172;-87
2022/03/25 13:20:57;;;;;;;5.97;2.17;;;;;;;22.96;12.81;99042.91;5094404;28;20535;-88
2022/03/25 13:23:35;;;;;;;5.20;1.27;;;;;;;23.56;14.27;99036.41;5094927;28;20674;-91
2022/03/25 13:26:30;;;;;;;4.83;1.30;;;;;;;23.36;13.08;99029.66;5095176;28;20195;-88
2022/03/25 13:32:42;;;;;;;4.47;1.80;;;;;;;23.53;13.95;99036.75;5063824;28;20260;-89
2022/03/25 13:35:22;;;;;;;2.97;1.73;;;;;;;23.33;15.18;99051.38;5056668;28;20183;-90
2022/03/25 13:37:59;;;;;;;3.03;1.20;;;;;;;23.32;12.80;99044.38;5053709;28;20186;-88
2022/03/25 13:40:30;;;;;;;3.63;1.77;;;;;;;23.75;13.94;99048.66;5072646;28;20607;-89
2022/03/25 13:43:01;;;;;;;4.87;1.97;;;;;;;23.47;15.33;99026.72;5072091;28;20270;-88
2022/03/25 13:45:36;;;;;;;5.27;2.80;;;;;;;22.98;18.57;99046.28;5094112;28;20188;-92
2022/03/25 13:48:05;;;;;;;8.70;3.47;;;;;;;23.36;19.03;99053.75;5094532;28;20646;-88
2022/03/25 13:50:31;;;;;;;6.73;3.40;;;;;;;23.62;18.38;99043.78;5094209;28;20188;-89
2022/03/25 13:53:14;;;;;;;7.97;3.63;;;;;;;23.91;18.14;99050.50;5093104;28;20196;-90
2022/03/25 13:55:42;;;;;;;7.70;3.43;;;;;;;24.21;17.69;99053.34;5094463;28;20160;-90
2022/03/25 13:58:13;;;;;;;7.20;3.13;;;;;;;24.08;18.56;99053.03;5093445;28;20644;-89
2022/03/25 14:00:39;;;;;;;7.10;3.50;;;;;;;24.00;19.02;99061.06;5092959;28;20182;-89
2022/03/25 14:03:06;;;;;;;8.17;3.70;;;;;;;23.84;18.31;99061.06;5094030;28;20184;-90
2022/03/25 14:09:08;;;;;;;6.47;2.17;;;;;;;24.41;14.38;99070.78;5080842;28;20703;-90
2022/03/25 14:11:36;;;;;;;3.10;1.70;;;;;;;24.12;14.38;99074.97;5094079;28;20188;-89
2022/03/25 14:15:21;;;;;;;;;;;;;;;;;;;;;
2022/03/25 14:17:20;;;;;;;2.83;1.40;;;;;;;23.19;13.46;99070.75;5087600;28;20196;-90
2022/03/25 14:23:11;;;;;;;4.63;1.40;;;;;;;23.50;13.48;99065.69;5093827;28;20245;-89
2022/03/25 14:25:39;;;;;;;3.53;1.60;;;;;;;22.51;12.94;99080.56;5093758;28;20179;-91
2022/03/25 14:28:10;;;;;;;2.53;1.00;;;;;;;22.29;13.37;99081.91;5093790;28;20207;-89
2022/03/25 14:30:41;;;;;;;3.57;1.40;;;;;;;22.40;12.83;99084.34;5094233;28;20251;-94
2022/03/25 14:33:07;;;;;;;2.73;1.57;;;;;;;22.23;12.59;99073.66;5094246;28;20184;-89
2022/03/25 14:35:32;;;;;;;2.60;0.97;;;;;;;22.20;12.43;99082.84;5093866;28;20187;-89
2022/03/25 14:37:58;;;;;;;3.43;1.30;;;;;;;22.06;12.56;99091.41;5093680;28;20214;-90
2022/03/25 14:40:32;;;;;;;4.13;1.53;;;;;;;21.94;12.45;99095.28;5093643;28;20183;-90
2022/03/25 14:42:57;;;;;;;3.03;1.20;;;;;;;21.46;12.69;99094.78;5093515;28;20266;-88
2022/03/25 14:45:23;;;;;;;3.20;1.53;;;;;;;21.53;13.04;99099.38;5092656;28;20641;-87
2022/03/25 14:48:24;;;;;;;;;;;;;;;;;;;;;
2022/03/25 14:50:53;;;;;;;5.13;1.37;;;;;;;21.94;13.47;99097.97;5051247;28;20196;-93
2022/03/25 14:53:50;;;;;;;3.57;1.83;;;;;;;21.98;13.55;99094.84;5052076;28;20209;-94
2022/03/25 14:56:25;;;;;;;2.67;1.50;;;;;;;21.75;14.07;99106.09;5052028;28;20264;-92
2022/03/25 14:58:59;;;;;;;5.50;1.43;;;;;;;21.71;14.15;99107.38;5035695;28;20181;-89
2022/03/25 15:02:25;;;;;;;5.13;2.47;;;;;;;21.96;14.24;99112.81;5034761;28;20193;-91
2022/03/25 15:05:50;;;;;;;;;;;;;;;;;;;;;
2022/03/25 15:08:01;;;;;;;7.37;2.17;;;;;;;21.84;14.58;99121.19;4984309;28;20232;-88
2022/03/25 15:10:29;;;;;;;4.63;1.90;;;;;;;21.35;14.61;99126.00;5032138;28;20190;-92
2022/03/25 15:13:29;;;;;;;4.87;2.20;;;;;;;21.84;14.81;99123.84;5031468;28;20202;-91
2022/03/25 15:15:58;;;;;;;3.67;2.10;;;;;;;21.39;14.90;99135.38;5031621;28;20184;-90
2022/03/25 15:18:26;;;;;;;4.40;1.90;;;;;;;21.30;14.63;99136.25;5093788;28;20172;-89
2022/03/25 15:21:04;;;;;;;3.90;1.67;;;;;;;21.56;14.72;99144.41;5109064;28;20183;-90
2022/03/25 15:28:01;;;;;;;;;;;;;;;;;;;;;
2022/03/25 15:36:00;;;;;;;5.27;2.13;;;;;;;21.24;14.91;99168.88;5075665;28;20239;-91
2022/03/25 15:38:44;;;;;;;10.80;3.10;;;;;;;20.89;15.27;99173.16;5058234;28;20188;-91
2022/03/25 15:41:09;;;;;;;3.23;1.87;;;;;;;21.07;15.60;99174.13;5058093;28;20177;-89
2022/03/25 15:43:55;;;;;;;2.70;1.63;;;;;;;20.99;15.60;99179.31;5085301;28;20194;-90
2022/03/25 15:53:07;;;;;;;6.53;1.80;;;;;;;21.07;15.28;99193.59;4975554;28;20306;-89
2022/03/25 15:55:43;;;;;;;8.10;2.20;;;;;;;21.16;15.75;99197.22;5089005;28;20244;-91
2022/03/25 15:58:12;;;;;;;4.03;1.77;;;;;;;21.00;16.10;99202.28;5096944;28;20164;-92
2022/03/25 16:00:40;;;;;;;5.77;2.10;;;;;;;20.57;16.95;99192.16;5096696;28;20180;-88
2022/03/25 16:03:20;;;;;;;;;;;;;;;;;;;;;
2022/03/25 16:05:48;;;;;;;3.50;1.60;;;;;;;20.21;16.97;99205.16;5097119;28;20168;-90
2022/03/25 16:08:14;;;;;;;5.03;2.00;;;;;;;20.02;16.90;99204.31;5095101;28;20210;-90
2022/03/25 16:10:40;;;;;;;4.63;2.03;;;;;;;19.91;17.03;99204.44;5097136;28;20169;-92
2022/03/25 16:13:06;;;;;;;5.47;1.43;;;;;;;19.70;17.34;99212.53;5096701;28;20187;-89
2022/03/25 16:15:32;;;;;;;5.60;2.67;;;;;;;19.49;17.50;99215.25;5096701;28;20241;-92
2022/03/25 16:17:58;;;;;;;3.47;1.70;;;;;;;19.42;17.67;99226.53;5096055;28;20178;-91
2022/03/25 16:20:25;;;;;;;4.70;1.87;;;;;;;19.25;17.05;99227.13;5096248;28;20180;-91